気象予報士の航空気象 福岡空港冠水

*All archives   *Admin

2009.07.24 (Fri)

福岡空港冠水

 北九州と中国地方で大雨が続いています。


今日の福岡空港は大変な天気で、NHKのニュースを見ていましたら、滑走路と駐機場が冠水しているではありませんか!?


NHKニュース ←クリック


街中も冠水し、その中を車が走っており、こわいなぁと感じました。


というのも、冠水した道路を乗用車で走ることに危険を感じないのかなぁという疑問です。


 死亡事故にもつながる事例なので、安易な気持ちで批判する行為は慎むべきことですが、そういう気持ちを起こさせるほどおろかでとても危険な行為です。


これは後日と特集したいと考えていますが、タイヤが半分も水面に没し、車内に水がしみこむほどの冠水時に、乗用車を運転することは非常に危険です。


 さて、下記は福岡のMetarの時系列で、豪雨がひどかった夕方から夜9時くらいのものです。ご参考に。


241230Z 13007KT 100V180 9999 -SHRA FEW010 SCT020 BKN030 26/24 Q1002

241200Z 10006KT 070V130 8000 SHRA FEW005 SCT015 BKN025 24/23 Q1002 RETS

241140Z 09007KT 030V130 8000 SHRA FEW005 SCT015 BKN025 24/23 Q1002 RETS RMK 1ST005 3CU015 6CU025 A2960

241130Z 12007KT 030V150 4000 R16/P1800N +TSRA FEW005 SCT015 FEW020CB BKN025 24/23 Q1002

241119Z 18007KT 140V230 4000 R16/P1800N +TSRA FEW005 SCT015 FEW020CB BKN025 24/23 Q1002 RMK 1ST005 3CU015 1CB020 6CU025 A2960 FBL TS 5KM S MOV E RI++

241117Z 19005KT 160V230 7000 R16/P1800N +TSRA FEW005 SCT015 FEW020CB BKN025 24/23 Q1002 RMK 1ST005 3CU015 1CB020 6CU025 A2960 FBL TS 5KM S MOV E

241115Z 19004KT 7000 -TSRA FEW005 SCT015 FEW020CB BKN025 25/23 Q1002 RMK 1ST005 3CU015 1CB020 6CU025 A2960 FBL TS 5KM S MOV E

241100Z 31005KT 260V350 5000 TSRA FEW001 SCT003 BKN010 FEW015CB 24/23 Q1001

241048Z 32007KT 280V350 3000 R16/0600VP1800N TSRA FEW001 SCT003 BKN007 FEW015CB 24/23 Q1001 RMK 1ST001 3ST003 6ST007 2CB015 A2958 MOD TS OHD MOV E

241045Z 31008KT 260V350 1500 R34/0400V0900D +TSRA FEW001 SCT003 BKN005 SCT015CB 24/23 Q1001 RMK 1ST001 3ST003 6ST005 3CB015 A2957 MOD TS OHD STNR

241039Z 30009KT 260V350 1000 R16/0750VP1800U +TSRA FEW001 SCT003 BKN005 SCT015CB 24/23 Q1002 RMK 1ST001 3ST003 6ST005 3CB015 A2959 MOD TS OHD STNR RI++

241036Z 31009KT 280V340 1000 R16/0650V1300N +TSRA FEW001 SCT003 BKN005 SCT015CB 24/23 Q1001 RMK 1ST001 3ST003 6ST005 3CB015 A2957 MOD TS OHD STNR RI++

241032Z 32009KT 280V350 1000 R16/0450V0900U +TSRA FEW001 SCT003 BKN005 SCT015CB 24/23 Q1001 RMK 1ST001 3ST003 6ST005 3CB015 A2956 MOD TS OHD STNR RI++

241030Z 32008KT 280V350 1000 R16/0450V0900U +TSRA FEW001 SCT003 BKN005 SCT015CB 24/23 Q1001

241000Z 01009KT 0600 R16/0400V0600N +TSRA FEW001 SCT003 BKN005 SCT015CB 24/22 Q1001

240942Z 02010KT 0600 R16/0450V1300D +TSRA FEW001 SCT003 BKN006 FEW015CB 24/22 Q1000 RMK 1ST001 3ST003 6ST006 2CB015 A2954 MOD TS OHD MOV STNR RI++

240940Z 05009KT 0600 R16/0450V1500D +TSRA FEW001 SCT003 BKN006 FEW015CB 24/22 Q1000 RMK 1ST001 3ST003 6ST006 2CB015 A2954 MOD TS OHD MOV E RI++

240933Z 06008KT 020V080 1000 R16/1000V1500N +TSRA FEW005 SCT006 BKN008 FEW015CB 24/22 Q1001 RMK 2ST005 3ST006 5ST008 2CB015 A2956 MOD TS OHD MOV E RI++

240930Z 06008KT 020V100 1000 R16/1000VP1800D +TSRA FEW005 SCT006 BKN008 FEW015CB 24/22 Q1001

240921Z 05009KT 320V100 1000 R16/0900VP1800D +TSRA FEW005 SCT006 BKN008 FEW015CB 24/22 Q1000 RMK 2ST005 3ST006 5ST008 1CB015 A2954 FBL TS 5KM E MOV E RI++

240900Z 05005KT 360V090 1500 R34/1100VP1800D +TSRA FEW005 SCT015CB BKN025 24/22 Q1001 WS R34

240844Z 35007KT 320V060 1500 R34/0900VP1800D +TSRA FEW005 SCT015CB BKN025 24/22 Q1000 RMK 1ST005 3CB015 7CU025 A2953 MOD TS OHD MOV E RI++

240830Z 34007KT 2000 R34/0800VP1800U +TSRA FEW005 SCT010 FEW020CB BKN025 24/22 Q1000

240825Z 34008G18KT 2000 R34/0600V1800U +TSRA FEW005 SCT010 FEW020CB BKN025 24/22 Q1000 RMK 1ST005 3CU010 1CB020 7CU025 A2955 FBL TS 5KM W MOV E P/RR

240819Z 30013G25KT 260V340 1500 R34/0900VP1800D +SHRA FEW005 SCT015 BKN020 24/21 Q1001 RMK 1ST005 3CU015 7CU020 A2956 0806 MOD TURB 4000FT SHIKA 6NM B735 P/RR RI++

240812Z 29011G25KT 260V330 3000 +SHRA FEW005 SCT020 BKN030 26/22 Q1000 RMK 1ST005 3CU020 7CU030 A2955 P/RR

240807Z 24009KT 170V280 9999 -SHRA FEW005 SCT025 BKN030 27/24 Q1000 RMK 1ST005 3CU025 6CU030 A2953 P/RR




ブログランキングに参加しています。

にほんブログ村 環境ブログ 天気・気象学へ
にほんブログ村
応援クリックをおねがします。


以下、アフィリエイトサイトです。








九州に豪雨
2人死亡=ブロック倒壊、川が増水-福岡で避難勧告
7月24日20時48分配信 時事通信

 梅雨前線の影響で九州地方は24日、北部を中心に豪雨に見舞われ、長崎県壱岐市で男性1人が倒れたブロックの下敷きになり死亡したほか、大分県日田市で小学2年の男子児童(7)が増水した川におぼれて死亡。福岡市は一部住民に避難勧告を出した。

 長崎県警壱岐署などによると、24日午後5時すぎ、壱岐市郷ノ浦町初山西触で、大雨による土砂崩れで民家のブロック塀が倒壊、この家に住む農業山内喜代光さん(67)が下敷きになり死亡した。

 日田市十二町では午後2時ごろ、友人2人と川で遊んでいた小学2年男児が、足を滑らせて転落。病院に運ばれたが死亡した。川の水位は雨の影響で普段より数十センチ上昇していたという。

 福岡市は1934世帯に対し、河川はんらんの恐れがあるとして避難勧告。福岡県前原市では冠水した道路で、乗用車が流されるなどし、同県は、勧告がなくても危険と判断した場合は、自主避難するよう呼び掛けた。

 気象庁によると、大陸からの梅雨前線が伸びた影響で大気の状態が不安定となり、九州北部で激しい雨が降った。長崎県の壱岐空港では1時間に108ミリを記録し、局地的に猛烈な雨を観測。大雨は25日昼すぎまで続く見込みで、同庁は、土砂災害や河川はんらんへの警戒を呼び掛けた。

 JRは、山陽新幹線小倉~博多駅間の上下線の運転を一時見合わせたほか、鹿児島本線などで運転を見合わせている。九州自動車道は、崩落の恐れがあるため全線で通行止めに。航空機も福岡発着便を中心に欠航が相次いだ。 
スポンサーサイト
23:03  |  気象・天気  |  TB(0)  |  CM(0)  |  EDIT  |  Top↑

コメントを投稿する


 管理者だけに表示  (非公開コメント投稿可能)

▲PageTop

この記事のトラックバックURL

→http://weathereucalyptus.blog115.fc2.com/tb.php/185-69cabea2
この記事にトラックバックする(FC2ブログユーザー)

この記事へのトラックバック

▲PageTop

 | BLOGTOP |